createdAt,value
2018-11-23T00:00:20.436Z,1014.31
2018-11-23T00:01:20.443Z,1014.33
2018-11-23T00:02:20.452Z,1014.30
2018-11-23T00:03:20.459Z,1014.32
2018-11-23T00:04:20.480Z,1014.31
2018-11-23T00:05:20.474Z,1014.34
2018-11-23T00:06:20.487Z,1014.35
2018-11-23T00:07:20.493Z,1014.34
2018-11-23T00:08:20.497Z,1014.33
2018-11-23T00:09:20.513Z,1014.35
2018-11-23T00:10:20.517Z,1014.37
2018-11-23T00:11:20.522Z,1014.39
2018-11-23T00:12:20.544Z,1014.42
2018-11-23T00:13:20.541Z,1014.47
2018-11-23T00:14:20.547Z,1014.45
2018-11-23T00:15:20.566Z,1014.48
2018-11-23T00:16:20.564Z,1014.49
2018-11-23T00:17:20.574Z,1014.52
2018-11-23T00:18:20.582Z,1014.50
2018-11-23T00:19:20.597Z,1014.51
2018-11-23T00:20:20.596Z,1014.52
2018-11-23T00:21:20.605Z,1014.50
2018-11-23T00:22:20.616Z,1014.52
2018-11-23T00:23:20.621Z,1014.53
2018-11-23T00:24:20.631Z,1014.52
2018-11-23T00:25:20.639Z,1014.53
2018-11-23T00:26:20.651Z,1014.54
2018-11-23T00:27:20.655Z,1014.56
2018-11-23T00:28:20.662Z,1014.57
2018-11-23T00:29:20.675Z,1014.57
2018-11-23T00:30:20.676Z,1014.52
2018-11-23T00:31:20.683Z,1014.59
2018-11-23T00:32:20.700Z,1014.57
2018-11-23T00:33:20.700Z,1014.61
2018-11-23T00:34:20.707Z,1014.64
2018-11-23T00:35:20.718Z,1014.63
2018-11-23T00:36:20.724Z,1014.64
2018-11-23T00:37:20.734Z,1014.65
2018-11-23T00:38:20.752Z,1014.70
2018-11-23T00:39:20.748Z,1014.66
2018-11-23T00:40:20.755Z,1014.65
2018-11-23T00:41:20.763Z,1014.67
2018-11-23T00:42:20.771Z,1014.68
2018-11-23T00:43:20.779Z,1014.69
2018-11-23T00:44:20.788Z,1014.70
2018-11-23T00:45:20.797Z,1014.69
2018-11-23T00:46:20.808Z,1014.72
2018-11-23T00:47:20.814Z,1014.72
2018-11-23T00:48:20.818Z,1014.75
2018-11-23T00:49:20.828Z,1014.66
2018-11-23T00:50:20.834Z,1014.68
2018-11-23T00:51:20.848Z,1014.67
2018-11-23T00:52:20.850Z,1014.70
2018-11-23T00:53:20.873Z,1014.70
2018-11-23T00:54:20.865Z,1014.71
2018-11-23T00:55:20.873Z,1014.71
2018-11-23T00:56:20.882Z,1014.70
2018-11-23T00:57:20.890Z,1014.67
2018-11-23T00:58:20.897Z,1014.72
2018-11-23T00:59:20.906Z,1014.71
2018-11-23T01:00:20.914Z,1014.70
2018-11-23T01:01:20.921Z,1014.70
2018-11-23T01:02:20.929Z,1014.71
2018-11-23T01:03:20.939Z,1014.68
2018-11-23T01:04:20.945Z,1014.68
2018-11-23T01:05:20.958Z,1014.69
2018-11-23T01:06:20.961Z,1014.68
2018-11-23T01:07:20.970Z,1014.66
2018-11-23T01:08:20.979Z,1014.68
2018-11-23T01:09:20.985Z,1014.67
2018-11-23T01:10:20.993Z,1014.67
2018-11-23T01:11:21.002Z,1014.70
2018-11-23T01:12:21.011Z,1014.67
2018-11-23T01:13:21.018Z,1014.66
2018-11-23T01:14:21.026Z,1014.66
2018-11-23T01:15:21.034Z,1014.66
2018-11-23T01:16:21.044Z,1014.65
2018-11-23T01:17:21.050Z,1014.59
2018-11-23T01:18:21.058Z,1014.61
2018-11-23T01:19:21.066Z,1014.62
2018-11-23T01:20:21.082Z,1014.62
2018-11-23T01:21:21.085Z,1014.61
2018-11-23T01:22:21.092Z,1014.63
2018-11-23T01:23:21.201Z,1014.66
2018-11-23T01:24:21.107Z,1014.65
2018-11-23T01:25:21.119Z,1014.67
2018-11-23T01:26:21.125Z,1014.70
2018-11-23T01:27:21.138Z,1014.66
2018-11-23T01:28:21.142Z,1014.67
2018-11-23T01:29:21.149Z,1014.66
2018-11-23T01:30:21.157Z,1014.68
2018-11-23T01:31:21.167Z,1014.72
2018-11-23T01:32:21.180Z,1014.71
2018-11-23T01:33:21.186Z,1014.70
2018-11-23T01:34:21.194Z,1014.68
2018-11-23T01:35:21.199Z,1014.66
2018-11-23T01:36:21.208Z,1014.63
2018-11-23T01:37:21.216Z,1014.60
2018-11-23T01:38:21.227Z,1014.60
2018-11-23T01:39:21.233Z,1014.65
2018-11-23T01:40:21.239Z,1014.64
2018-11-23T01:41:21.248Z,1014.62
2018-11-23T01:42:21.262Z,1014.63
2018-11-23T01:43:21.266Z,1014.62
2018-11-23T01:44:21.272Z,1014.66
2018-11-23T01:45:21.286Z,1014.64
2018-11-23T01:46:21.293Z,1014.61
2018-11-23T01:47:21.306Z,1014.62
2018-11-23T01:48:21.306Z,1014.65
2018-11-23T01:49:21.324Z,1014.59
2018-11-23T01:50:21.321Z,1014.59
2018-11-23T01:51:21.337Z,1014.59
2018-11-23T01:52:21.342Z,1014.59
2018-11-23T01:53:21.344Z,1014.55
2018-11-23T01:54:21.355Z,1014.59
2018-11-23T01:55:21.362Z,1014.58
2018-11-23T01:56:21.373Z,1014.59
2018-11-23T01:57:21.378Z,1014.59
2018-11-23T01:58:21.390Z,1014.62
2018-11-23T01:59:21.395Z,1014.59
2018-11-23T02:00:21.405Z,1014.59
2018-11-23T02:01:21.425Z,1014.59
2018-11-23T02:02:21.419Z,1014.58
2018-11-23T02:03:21.427Z,1014.58
2018-11-23T02:04:21.434Z,1014.57
2018-11-23T02:05:21.447Z,1014.56
2018-11-23T02:06:21.456Z,1014.55
2018-11-23T02:07:21.461Z,1014.55
2018-11-23T02:08:21.468Z,1014.52
2018-11-23T02:09:21.477Z,1014.55
2018-11-23T02:10:21.484Z,1014.50
2018-11-23T02:11:21.494Z,1014.51
2018-11-23T02:12:21.502Z,1014.49
2018-11-23T02:13:21.508Z,1014.51
2018-11-23T02:14:21.518Z,1014.54
2018-11-23T02:15:21.531Z,1014.53
2018-11-23T02:16:21.535Z,1014.47
2018-11-23T02:17:21.544Z,1014.46
2018-11-23T02:18:21.551Z,1014.45
2018-11-23T02:19:21.558Z,1014.45
2018-11-23T02:20:21.573Z,1014.46
2018-11-23T02:21:21.574Z,1014.49
2018-11-23T02:22:21.582Z,1014.46
2018-11-23T02:23:21.594Z,1014.48
2018-11-23T02:24:21.598Z,1014.45
2018-11-23T02:25:21.625Z,1014.43
2018-11-23T02:26:21.616Z,1014.44
2018-11-23T02:27:21.628Z,1014.40
2018-11-23T02:28:21.631Z,1014.39
2018-11-23T02:29:21.639Z,1014.36
2018-11-23T02:30:21.655Z,1014.38
2018-11-23T02:31:21.655Z,1014.39
2018-11-23T02:32:21.667Z,1014.39
2018-11-23T02:33:21.672Z,1014.35
2018-11-23T02:34:21.678Z,1014.37
2018-11-23T02:35:21.688Z,1014.39
2018-11-23T02:36:21.694Z,1014.37
2018-11-23T02:37:21.703Z,1014.32
2018-11-23T02:38:21.710Z,1014.32
2018-11-23T02:39:21.718Z,1014.36
2018-11-23T02:40:21.727Z,1014.34
2018-11-23T02:41:21.733Z,1014.29
2018-11-23T02:42:21.749Z,1014.32
2018-11-23T02:43:21.759Z,1014.34
2018-11-23T02:44:21.762Z,1014.33
2018-11-23T02:45:21.768Z,1014.33
2018-11-23T02:46:21.772Z,1014.33
2018-11-23T02:47:21.787Z,1014.32
2018-11-23T02:48:21.790Z,1014.33
2018-11-23T02:49:21.797Z,1014.33
2018-11-23T02:50:21.808Z,1014.33
2018-11-23T02:51:21.816Z,1014.29
2018-11-23T02:52:21.821Z,1014.31
2018-11-23T02:53:21.829Z,1014.33
2018-11-23T02:54:21.835Z,1014.29
2018-11-23T02:55:21.848Z,1014.30
2018-11-23T02:56:21.852Z,1014.27
2018-11-23T02:57:21.863Z,1014.30
2018-11-23T02:58:21.867Z,1014.32
2018-11-23T02:59:23.959Z,1014.27
2018-11-23T03:00:21.883Z,1014.28
2018-11-23T03:01:21.890Z,1014.25
2018-11-23T03:02:21.901Z,1014.19
2018-11-23T03:03:21.907Z,1014.21
2018-11-23T03:04:21.914Z,1014.21
2018-11-23T03:05:21.922Z,1014.20
2018-11-23T03:06:21.928Z,1014.22
2018-11-23T03:07:21.940Z,1014.21
2018-11-23T03:08:21.946Z,1014.18
2018-11-23T03:09:21.953Z,1014.19
2018-11-23T03:10:21.959Z,1014.22
2018-11-23T03:11:21.962Z,1014.21
2018-11-23T03:12:21.970Z,1014.21
2018-11-23T03:13:21.978Z,1014.13
2018-11-23T03:14:21.994Z,1014.17
2018-11-23T03:15:21.995Z,1014.18
2018-11-23T03:16:22.010Z,1014.18
2018-11-23T03:17:22.013Z,1014.17
2018-11-23T03:18:22.016Z,1014.16
2018-11-23T03:19:22.027Z,1014.14
2018-11-23T03:20:22.033Z,1014.13
2018-11-23T03:21:22.042Z,1014.12
2018-11-23T03:22:22.047Z,1014.12
2018-11-23T03:23:22.055Z,1014.09
2018-11-23T03:24:22.068Z,1014.06
2018-11-23T03:25:22.078Z,1014.07
2018-11-23T03:26:22.078Z,1014.09
2018-11-23T03:27:22.087Z,1014.03
2018-11-23T03:28:22.095Z,1014.04
2018-11-23T03:29:22.106Z,1014.02
2018-11-23T03:30:22.111Z,1013.99
2018-11-23T03:31:22.121Z,1014.01
2018-11-23T03:32:22.135Z,1013.97
2018-11-23T03:33:22.134Z,1013.98
2018-11-23T03:34:22.141Z,1013.98
2018-11-23T03:35:22.158Z,1014.03
2018-11-23T03:36:22.157Z,1014.04
2018-11-23T03:37:22.164Z,1014.08
2018-11-23T03:38:22.185Z,1014.09
2018-11-23T03:39:22.182Z,1014.12
2018-11-23T03:40:22.190Z,1014.14
2018-11-23T03:41:22.195Z,1014.13
2018-11-23T03:42:22.214Z,1014.13
2018-11-23T03:43:22.209Z,1014.16
2018-11-23T03:44:22.217Z,1014.16
2018-11-23T03:45:22.247Z,1014.14
2018-11-23T03:46:22.233Z,1014.15
2018-11-23T03:47:22.239Z,1014.13
2018-11-23T03:48:22.249Z,1014.16
2018-11-23T03:49:22.266Z,1014.16
2018-11-23T03:50:22.263Z,1014.18
2018-11-23T03:51:22.272Z,1014.19
2018-11-23T03:52:22.280Z,1014.20
2018-11-23T03:53:22.298Z,1014.20
2018-11-23T03:54:22.294Z,1014.22
2018-11-23T03:55:22.305Z,1014.19
2018-11-23T03:56:22.314Z,1014.19
2018-11-23T03:57:22.316Z,1014.15
2018-11-23T03:58:22.324Z,1014.15
2018-11-23T03:59:22.332Z,1014.19
2018-11-23T04:00:22.340Z,1014.14
2018-11-23T04:01:22.347Z,1014.16
2018-11-23T04:02:22.353Z,1014.17
2018-11-23T04:03:22.366Z,1014.11
2018-11-23T04:04:22.376Z,1014.17
2018-11-23T04:05:22.384Z,1014.13
2018-11-23T04:06:22.384Z,1014.12
2018-11-23T04:07:22.391Z,1014.14
2018-11-23T04:08:22.401Z,1014.19
2018-11-23T04:09:22.407Z,1014.13
2018-11-23T04:10:22.422Z,1014.16
2018-11-23T04:11:22.425Z,1014.12
2018-11-23T04:12:22.431Z,1014.16
2018-11-23T04:13:22.436Z,1014.18
2018-11-23T04:14:22.455Z,1014.15
2018-11-23T04:15:22.459Z,1014.13
2018-11-23T04:16:22.462Z,1014.15
2018-11-23T04:17:22.469Z,1014.10
2018-11-23T04:18:22.475Z,1014.10
2018-11-23T04:19:22.486Z,1014.15
2018-11-23T04:20:22.491Z,1014.13
2018-11-23T04:21:22.497Z,1014.12
2018-11-23T04:22:22.506Z,1014.12
2018-11-23T04:23:22.516Z,1014.09
2018-11-23T04:24:22.519Z,1014.09
2018-11-23T04:25:22.529Z,1014.14
2018-11-23T04:26:24.812Z,1014.10
2018-11-23T04:27:22.542Z,1014.11
2018-11-23T04:28:22.549Z,1014.12
2018-11-23T04:29:22.562Z,1014.14
2018-11-23T04:30:22.567Z,1014.06
2018-11-23T04:31:22.576Z,1014.11
2018-11-23T04:32:22.580Z,1014.13
2018-11-23T04:33:22.592Z,1014.14
2018-11-23T04:34:22.595Z,1014.16
2018-11-23T04:35:22.606Z,1014.14
2018-11-23T04:36:22.611Z,1014.11
2018-11-23T04:37:22.618Z,1014.16
2018-11-23T04:38:22.624Z,1014.11
2018-11-23T04:39:22.732Z,1014.12
2018-11-23T04:40:22.639Z,1014.12
2018-11-23T04:41:22.649Z,1014.08
2018-11-23T04:42:22.655Z,1014.11
2018-11-23T04:43:22.667Z,1014.09
2018-11-23T04:44:22.669Z,1014.08
2018-11-23T04:45:22.678Z,1014.07
2018-11-23T04:46:22.685Z,1014.13
2018-11-23T04:47:22.693Z,1014.08
2018-11-23T04:48:22.702Z,1014.10
2018-11-23T04:49:22.712Z,1014.04
2018-11-23T04:50:22.714Z,1014.10
2018-11-23T04:51:22.722Z,1014.04
2018-11-23T04:52:22.729Z,1014.06
2018-11-23T04:53:22.738Z,1014.08
2018-11-23T04:54:22.745Z,1014.08
2018-11-23T04:55:22.751Z,1014.06
2018-11-23T04:56:22.760Z,1014.06
2018-11-23T04:57:22.768Z,1014.03
2018-11-23T04:58:22.775Z,1014.08
2018-11-23T04:59:22.782Z,1014.05
2018-11-23T05:00:22.790Z,1014.07
2018-11-23T05:01:22.802Z,1013.98
2018-11-23T05:02:22.804Z,1014.06
2018-11-23T05:03:22.813Z,1014.04
2018-11-23T05:04:22.822Z,1014.06
2018-11-23T05:05:22.833Z,1014.09
2018-11-23T05:06:22.836Z,1014.06
2018-11-23T05:07:22.849Z,1014.08
2018-11-23T05:08:22.852Z,1014.02
2018-11-23T05:09:22.881Z,1014.00
2018-11-23T05:10:22.865Z,1014.02
2018-11-23T05:11:22.873Z,1014.01
2018-11-23T05:12:22.880Z,1014.02
2018-11-23T05:13:22.889Z,1014.01
2018-11-23T05:14:22.893Z,1013.99
2018-11-23T05:15:22.903Z,1013.99
2018-11-23T05:16:22.911Z,1014.00
2018-11-23T05:17:22.918Z,1013.99
2018-11-23T05:18:22.935Z,1014.01
2018-11-23T05:19:22.932Z,1014.02
2018-11-23T05:20:22.940Z,1013.98
2018-11-23T05:21:22.947Z,1013.96
2018-11-23T05:22:22.954Z,1013.96
2018-11-23T05:23:22.961Z,1013.97
2018-11-23T05:24:22.969Z,1013.96
2018-11-23T05:25:22.978Z,1013.98
2018-11-23T05:26:22.983Z,1013.99
2018-11-23T05:27:22.993Z,1014.00
2018-11-23T05:28:23.014Z,1013.95
2018-11-23T05:29:23.007Z,1013.91
2018-11-23T05:30:23.015Z,1013.91
2018-11-23T05:31:23.022Z,1013.91
2018-11-23T05:32:23.030Z,1013.89
2018-11-23T05:33:23.043Z,1013.86
2018-11-23T05:34:23.055Z,1013.86
2018-11-23T05:35:23.052Z,1013.86
2018-11-23T05:36:23.059Z,1013.81
2018-11-23T05:37:23.069Z,1013.83
2018-11-23T05:38:23.077Z,1013.82
2018-11-23T05:39:23.082Z,1013.85
2018-11-23T05:40:23.091Z,1013.82
2018-11-23T05:41:23.129Z,1013.82
2018-11-23T05:42:23.106Z,1013.81
2018-11-23T05:43:23.117Z,1013.78
2018-11-23T05:44:23.119Z,1013.83
2018-11-23T05:45:23.126Z,1013.83
2018-11-23T05:46:23.133Z,1013.85
2018-11-23T05:47:23.141Z,1013.82
2018-11-23T05:48:26.955Z,1013.83
2018-11-23T05:49:23.163Z,1013.84
2018-11-23T05:50:23.163Z,1013.77
2018-11-23T05:51:23.171Z,1013.76
2018-11-23T05:52:23.383Z,1013.78
2018-11-23T05:53:23.205Z,1013.77
2018-11-23T05:54:23.193Z,1013.79
2018-11-23T05:55:23.209Z,1013.79
2018-11-23T05:56:23.207Z,1013.79
2018-11-23T05:57:23.216Z,1013.83
2018-11-23T05:58:23.223Z,1013.82
2018-11-23T05:59:23.237Z,1013.79
2018-11-23T06:00:23.237Z,1013.77
2018-11-23T06:01:23.246Z,1013.77
2018-11-23T06:02:23.253Z,1013.78
2018-11-23T06:03:23.262Z,1013.77
2018-11-23T06:04:23.267Z,1013.78
2018-11-23T06:05:23.277Z,1013.78
2018-11-23T06:06:23.293Z,1013.80
2018-11-23T06:07:23.292Z,1013.80
2018-11-23T06:08:23.298Z,1013.80
2018-11-23T06:09:23.305Z,1013.75
2018-11-23T06:10:23.312Z,1013.75
2018-11-23T06:11:23.325Z,1013.80
2018-11-23T06:12:23.332Z,1013.76
2018-11-23T06:13:23.336Z,1013.77
2018-11-23T06:14:23.341Z,1013.73
2018-11-23T06:15:23.349Z,1013.80
2018-11-23T06:16:23.362Z,1013.72
2018-11-23T06:17:23.364Z,1013.76
2018-11-23T06:18:23.373Z,1013.74
2018-11-23T06:19:23.380Z,1013.73
2018-11-23T06:20:23.387Z,1013.75
2018-11-23T06:21:23.396Z,1013.77
2018-11-23T06:22:23.409Z,1013.71
2018-11-23T06:23:23.407Z,1013.74
2018-11-23T06:24:23.415Z,1013.73
2018-11-23T06:25:23.423Z,1013.69
2018-11-23T06:26:23.429Z,1013.70
2018-11-23T06:27:23.441Z,1013.71
2018-11-23T06:28:23.447Z,1013.70
2018-11-23T06:29:23.451Z,1013.71
2018-11-23T06:30:23.459Z,1013.70
2018-11-23T06:31:23.465Z,1013.71
2018-11-23T06:32:23.472Z,1013.72
2018-11-23T06:33:23.481Z,1013.74
2018-11-23T06:34:23.489Z,1013.77
2018-11-23T06:35:23.495Z,1013.76
2018-11-23T06:36:23.503Z,1013.79
2018-11-23T06:37:23.510Z,1013.78
2018-11-23T06:38:23.516Z,1013.79
2018-11-23T06:39:23.523Z,1013.76
2018-11-23T06:40:23.532Z,1013.79
2018-11-23T06:41:23.539Z,1013.74
2018-11-23T06:42:23.547Z,1013.72
2018-11-23T06:43:23.552Z,1013.75
2018-11-23T06:44:23.560Z,1013.74
2018-11-23T06:45:23.567Z,1013.72
2018-11-23T06:46:23.608Z,1013.78
2018-11-23T06:47:23.584Z,1013.78
2018-11-23T06:48:23.589Z,1013.79
2018-11-23T06:49:23.596Z,1013.79
2018-11-23T06:50:23.622Z,1013.81
2018-11-23T06:51:23.620Z,1013.82
2018-11-23T06:52:23.618Z,1013.84
2018-11-23T06:53:23.635Z,1013.83
2018-11-23T06:54:23.639Z,1013.87
2018-11-23T06:55:23.639Z,1013.86
2018-11-23T06:56:23.650Z,1013.89
2018-11-23T06:57:23.654Z,1013.87
2018-11-23T06:58:23.661Z,1013.88
2018-11-23T06:59:23.668Z,1013.85
2018-11-23T07:00:23.678Z,1013.84
2018-11-23T07:01:23.684Z,1013.84
2018-11-23T07:02:23.691Z,1013.85
2018-11-23T07:03:23.699Z,1013.83
2018-11-23T07:04:23.706Z,1013.86
2018-11-23T07:05:23.714Z,1013.84
2018-11-23T07:06:23.720Z,1013.84
2018-11-23T07:07:23.728Z,1013.87
2018-11-23T07:08:23.741Z,1013.88
2018-11-23T07:09:23.741Z,1013.87
2018-11-23T07:10:23.749Z,1013.83
2018-11-23T07:11:23.761Z,1013.92
2018-11-23T07:12:23.761Z,1013.92
2018-11-23T07:13:23.770Z,1013.94
2018-11-23T07:14:23.776Z,1013.91
2018-11-23T07:15:23.785Z,1013.91
2018-11-23T07:16:23.792Z,1013.92
2018-11-23T07:17:23.800Z,1013.90
2018-11-23T07:18:23.807Z,1013.92
2018-11-23T07:19:23.816Z,1013.91
2018-11-23T07:20:23.828Z,1013.94
2018-11-23T07:21:23.830Z,1013.88
2018-11-23T07:22:23.840Z,1013.87
2018-11-23T07:23:23.846Z,1013.94
2018-11-23T07:24:23.849Z,1013.88
2018-11-23T07:25:23.859Z,1013.87
2018-11-23T07:26:23.864Z,1013.91
2018-11-23T07:27:23.872Z,1013.89
2018-11-23T07:28:23.881Z,1013.91
2018-11-23T07:29:23.887Z,1013.91
2018-11-23T07:30:23.898Z,1013.93
2018-11-23T07:31:23.908Z,1013.86
2018-11-23T07:32:23.911Z,1013.90
2018-11-23T07:33:23.918Z,1013.87
2018-11-23T07:34:23.924Z,1013.88
2018-11-23T07:35:23.931Z,1013.91
2018-11-23T07:36:23.940Z,1013.91
2018-11-23T07:37:23.948Z,1013.90
2018-11-23T07:38:23.952Z,1013.91
2018-11-23T07:39:23.960Z,1013.90
2018-11-23T07:40:23.967Z,1013.89
2018-11-23T07:41:23.973Z,1013.92
2018-11-23T07:42:23.980Z,1013.88
2018-11-23T07:43:23.988Z,1013.91
2018-11-23T07:44:23.995Z,1013.91
2018-11-23T07:45:24.015Z,1013.91
2018-11-23T07:46:24.013Z,1013.95
2018-11-23T07:47:24.018Z,1013.93
2018-11-23T07:48:24.028Z,1013.94
2018-11-23T07:49:24.032Z,1013.97
2018-11-23T07:50:24.043Z,1013.98
2018-11-23T07:51:24.053Z,1013.95
2018-11-23T07:52:24.057Z,1013.99
2018-11-23T07:53:24.063Z,1014.05
2018-11-23T07:54:24.068Z,1014.00
2018-11-23T07:55:24.080Z,1014.02
2018-11-23T07:56:24.086Z,1014.00
2018-11-23T07:57:24.093Z,1013.97
2018-11-23T07:58:24.099Z,1013.99
2018-11-23T07:59:24.106Z,1013.96
2018-11-23T08:00:24.130Z,1013.95
2018-11-23T08:01:24.123Z,1013.94
2018-11-23T08:02:24.128Z,1013.97
2018-11-23T08:03:24.135Z,1013.94
2018-11-23T08:04:24.175Z,1013.96
2018-11-23T08:05:24.150Z,1013.98
2018-11-23T08:06:24.157Z,1013.98
2018-11-23T08:07:24.165Z,1013.96
2018-11-23T08:08:24.173Z,1013.96
2018-11-23T08:09:24.244Z,1013.94
2018-11-23T08:10:24.187Z,1013.93
2018-11-23T08:11:25.094Z,1013.96
2018-11-23T08:12:24.200Z,1013.95
2018-11-23T08:13:24.207Z,1013.93
2018-11-23T08:14:24.215Z,1013.93
2018-11-23T08:15:24.321Z,1013.95
2018-11-23T08:16:24.233Z,1013.97
2018-11-23T08:17:24.239Z,1013.92
2018-11-23T08:18:24.246Z,1013.88
2018-11-23T08:19:24.253Z,1013.88
2018-11-23T08:20:24.260Z,1013.87
2018-11-23T08:21:24.269Z,1013.87
2018-11-23T08:22:24.277Z,1013.97
2018-11-23T08:23:24.293Z,1013.94
2018-11-23T08:24:24.290Z,1013.92
2018-11-23T08:25:24.298Z,1013.94
2018-11-23T08:26:24.304Z,1013.92
2018-11-23T08:27:24.313Z,1013.93
2018-11-23T08:28:24.321Z,1013.91
2018-11-23T08:29:24.333Z,1013.88
2018-11-23T08:30:24.333Z,1013.89
2018-11-23T08:31:24.341Z,1013.86
2018-11-23T08:32:24.350Z,1013.88
2018-11-23T08:33:24.363Z,1013.84
2018-11-23T08:34:24.378Z,1013.83
2018-11-23T08:35:24.371Z,1013.85
2018-11-23T08:36:24.388Z,1013.82
2018-11-23T08:37:24.388Z,1013.79
2018-11-23T08:38:24.397Z,1013.78
2018-11-23T08:39:24.402Z,1013.82
2018-11-23T08:40:24.410Z,1013.74
2018-11-23T08:41:24.428Z,1013.73
2018-11-23T08:42:24.424Z,1013.76
2018-11-23T08:43:24.432Z,1013.80
2018-11-23T08:44:24.758Z,1013.83
2018-11-23T08:45:24.448Z,1013.90
2018-11-23T08:46:24.456Z,1013.87
2018-11-23T08:47:24.462Z,1013.88
2018-11-23T08:48:24.470Z,1013.89
2018-11-23T08:49:24.477Z,1013.93
2018-11-23T08:50:24.484Z,1013.94
2018-11-23T08:51:24.494Z,1013.98
2018-11-23T08:52:24.504Z,1014.02
2018-11-23T08:53:27.925Z,1014.00
2018-11-23T08:54:24.560Z,1014.02
2018-11-23T08:56:24.536Z,1014.03
2018-11-23T08:57:24.541Z,1013.99
2018-11-23T08:58:24.547Z,1013.95
2018-11-23T08:59:24.547Z,1013.95
2018-11-23T09:00:24.555Z,1013.92
2018-11-23T09:01:24.566Z,1013.88
2018-11-23T09:02:24.571Z,1013.88
2018-11-23T09:03:24.578Z,1013.93
2018-11-23T09:04:24.587Z,1013.96
2018-11-23T09:05:24.593Z,1013.98
2018-11-23T09:06:24.602Z,1014.00
2018-11-23T09:07:24.608Z,1013.96
2018-11-23T09:08:24.621Z,1013.95
2018-11-23T09:09:24.626Z,1013.92
2018-11-23T09:10:24.645Z,1013.93
2018-11-23T09:11:24.639Z,1013.98
2018-11-23T09:12:24.649Z,1013.95
2018-11-23T09:13:25.064Z,1013.98
2018-11-23T09:14:24.665Z,1013.95
2018-11-23T09:15:24.675Z,1013.98
2018-11-23T09:16:24.695Z,1013.92
2018-11-23T09:17:24.689Z,1013.91
2018-11-23T09:18:24.697Z,1013.89
2018-11-23T09:19:24.707Z,1013.84
2018-11-23T09:20:24.715Z,1013.85
2018-11-23T09:21:24.724Z,1013.82
2018-11-23T09:22:24.728Z,1013.84
2018-11-23T09:23:24.735Z,1013.82
2018-11-23T09:24:24.767Z,1013.82
2018-11-23T09:25:24.786Z,1013.78
2018-11-23T09:26:24.757Z,1013.81
2018-11-23T09:27:24.767Z,1013.81
2018-11-23T09:28:24.775Z,1013.81
2018-11-23T09:29:24.784Z,1013.77
2018-11-23T09:30:24.793Z,1013.81
2018-11-23T09:31:24.799Z,1013.80
2018-11-23T09:32:24.808Z,1013.87
2018-11-23T09:33:24.815Z,1013.89
2018-11-23T09:34:24.822Z,1013.88
2018-11-23T09:35:24.832Z,1013.97
2018-11-23T09:36:24.839Z,1013.99
2018-11-23T09:37:24.849Z,1013.89
2018-11-23T09:38:24.856Z,1013.99
2018-11-23T09:39:24.864Z,1013.93
2018-11-23T09:40:24.871Z,1013.91
2018-11-23T09:41:24.892Z,1013.90
2018-11-23T09:42:24.888Z,1013.89
2018-11-23T09:43:24.895Z,1013.92
2018-11-23T09:44:24.939Z,1013.91
2018-11-23T09:45:24.912Z,1013.91
2018-11-23T09:46:24.920Z,1013.90
2018-11-23T09:47:24.933Z,1013.93
2018-11-23T09:48:24.945Z,1013.93
2018-11-23T09:49:24.945Z,1013.94
2018-11-23T09:50:24.953Z,1013.89
2018-11-23T09:51:25.004Z,1013.90
2018-11-23T09:52:24.970Z,1013.89
2018-11-23T09:53:24.982Z,1013.89
2018-11-23T09:54:24.985Z,1013.92
2018-11-23T09:55:24.995Z,1013.94
2018-11-23T09:56:25.003Z,1013.91
2018-11-23T09:57:25.016Z,1013.91
2018-11-23T09:58:25.020Z,1013.88
2018-11-23T09:59:25.027Z,1013.94
2018-11-23T10:00:25.037Z,1013.91
2018-11-23T10:01:25.046Z,1013.89
2018-11-23T10:02:25.055Z,1013.89
2018-11-23T10:03:25.074Z,1013.87
2018-11-23T10:04:25.086Z,1013.89
2018-11-23T10:05:25.081Z,1013.88
2018-11-23T10:06:25.088Z,1013.88
2018-11-23T10:07:25.097Z,1013.86
2018-11-23T10:08:25.104Z,1013.84
2018-11-23T10:09:25.124Z,1013.84
2018-11-23T10:10:25.124Z,1013.85
2018-11-23T10:11:25.131Z,1013.83
2018-11-23T10:12:25.147Z,1013.77
2018-11-23T10:13:25.145Z,1013.76
2018-11-23T10:14:25.174Z,1013.79
2018-11-23T10:15:25.163Z,1013.79
2018-11-23T10:16:25.171Z,1013.81
2018-11-23T10:17:25.181Z,1013.83
2018-11-23T10:18:25.186Z,1013.83
2018-11-23T10:19:25.196Z,1013.81
2018-11-23T10:20:25.209Z,1013.79
2018-11-23T10:21:25.214Z,1013.85
2018-11-23T10:22:25.221Z,1013.78
2018-11-23T10:23:25.230Z,1013.77
2018-11-23T10:24:25.248Z,1013.77
2018-11-23T10:25:25.247Z,1013.74
2018-11-23T10:26:25.255Z,1013.76
2018-11-23T10:27:25.263Z,1013.75
2018-11-23T10:28:25.277Z,1013.74
2018-11-23T10:29:25.282Z,1013.70
2018-11-23T10:30:25.290Z,1013.66
2018-11-23T10:31:25.319Z,1013.64
2018-11-23T10:32:25.307Z,1013.61
2018-11-23T10:33:28.340Z,1013.57
2018-11-23T10:34:25.323Z,1013.55
2018-11-23T10:35:25.342Z,1013.57
2018-11-23T10:36:25.342Z,1013.56
2018-11-23T10:37:25.349Z,1013.53
2018-11-23T10:38:25.363Z,1013.52
2018-11-23T10:39:25.368Z,1013.50
2018-11-23T10:40:25.376Z,1013.46
2018-11-23T10:41:25.386Z,1013.46
2018-11-23T10:42:25.393Z,1013.44
2018-11-23T10:43:25.401Z,1013.46
2018-11-23T10:44:25.410Z,1013.44
2018-11-23T10:45:25.418Z,1013.44
2018-11-23T10:46:25.427Z,1013.39
2018-11-23T10:47:25.437Z,1013.38
2018-11-23T10:48:25.451Z,1013.30
2018-11-23T10:49:25.460Z,1013.30
2018-11-23T10:50:25.464Z,1013.30
2018-11-23T10:51:25.486Z,1013.32
2018-11-23T10:52:25.520Z,1013.27
2018-11-23T10:53:25.493Z,1013.26
2018-11-23T10:54:25.499Z,1013.25
2018-11-23T10:55:25.506Z,1013.24
2018-11-23T10:56:25.517Z,1013.19
2018-11-23T10:57:25.525Z,1013.18
2018-11-23T10:58:25.537Z,1013.22
2018-11-23T10:59:25.544Z,1013.19
2018-11-23T11:00:25.592Z,1013.19
2018-11-23T11:01:25.564Z,1013.12
2018-11-23T11:02:25.577Z,1013.19
2018-11-23T11:03:25.581Z,1013.17
2018-11-23T11:04:25.586Z,1013.13
2018-11-23T11:05:25.594Z,1013.17
2018-11-23T11:06:25.607Z,1013.19
2018-11-23T11:07:25.819Z,1013.25
2018-11-23T11:08:25.623Z,1013.24
2018-11-23T11:09:25.631Z,1013.28
2018-11-23T11:10:25.639Z,1013.23
2018-11-23T11:11:25.649Z,1013.28
2018-11-23T11:12:25.658Z,1013.24
2018-11-23T11:13:25.666Z,1013.22
2018-11-23T11:14:25.679Z,1013.21
2018-11-23T11:15:25.684Z,1013.17
2018-11-23T11:16:25.693Z,1013.13
2018-11-23T11:17:25.702Z,1013.12
2018-11-23T11:18:25.711Z,1013.10
2018-11-23T11:19:25.719Z,1013.05
2018-11-23T11:20:25.729Z,1013.01
2018-11-23T11:21:25.737Z,1012.99
2018-11-23T11:22:25.746Z,1012.95
2018-11-23T11:23:25.756Z,1012.94
2018-11-23T11:24:25.764Z,1012.94
2018-11-23T11:25:25.773Z,1012.88
2018-11-23T11:26:25.782Z,1012.92
2018-11-23T11:27:25.794Z,1012.89
2018-11-23T11:28:25.799Z,1012.96
2018-11-23T11:29:25.812Z,1012.93
2018-11-23T11:30:25.817Z,1012.95
2018-11-23T11:31:25.828Z,1012.95
2018-11-23T11:32:25.839Z,1012.99
2018-11-23T11:33:25.849Z,1012.96
2018-11-23T11:34:25.854Z,1012.96
2018-11-23T11:35:25.869Z,1012.98
2018-11-23T11:36:25.873Z,1012.97
2018-11-23T11:37:25.886Z,1012.95
2018-11-23T11:38:25.890Z,1012.97
2018-11-23T11:39:25.899Z,1012.94
2018-11-23T11:40:25.909Z,1012.88
2018-11-23T11:41:25.917Z,1012.91
2018-11-23T11:42:25.928Z,1012.92
2018-11-23T11:43:25.945Z,1012.96
2018-11-23T11:44:25.945Z,1012.97
2018-11-23T11:45:25.959Z,1012.97
2018-11-23T11:46:25.964Z,1012.97
2018-11-23T11:47:25.973Z,1012.97
2018-11-23T11:48:25.980Z,1012.89
2018-11-23T11:49:25.992Z,1012.87
2018-11-23T11:50:25.998Z,1012.86
2018-11-23T11:51:26.014Z,1012.84
2018-11-23T11:52:26.118Z,1012.79
2018-11-23T11:53:26.032Z,1012.83
2018-11-23T11:54:26.041Z,1012.80
2018-11-23T11:55:26.047Z,1012.77
2018-11-23T11:56:26.057Z,1012.81
2018-11-23T11:57:26.066Z,1012.76
2018-11-23T11:58:26.076Z,1012.76
2018-11-23T11:59:26.085Z,1012.69
2018-11-23T12:00:26.103Z,1012.70
2018-11-23T12:01:26.104Z,1012.68
2018-11-23T12:02:26.112Z,1012.64
2018-11-23T12:03:26.121Z,1012.63
2018-11-23T12:04:26.130Z,1012.60
2018-11-23T12:05:26.144Z,1012.61
2018-11-23T12:06:26.157Z,1012.56